Terminal Aerodrome Forecast
Issued by NWS

Home | Current Version | Previous Version | Text Only | Print | Product List | Glossary On
Versions: 1 2 3 4 5 6 7 8 9 10 11 12 13 14 15 16 17 18 19 20
948
FTUS43 KSGF 250520
TAFJLN
TAF
KJLN 250520Z 2506/2606 18005KT P6SM BKN250
     FM251100 19006KT P6SM SCT050 BKN100
      TEMPO 2511/2515 5SM TSRA BKN050CB
     FM251500 21010KT P6SM FEW050 SCT150
     FM260200 19005KT P6SM SCT250=

USA.gov is the U.S. government's official web portal to all federal, state and local government web resources and services.